sensor_id;sensor_type;location;lat;lon;timestamp;temperature;humidity
7254;DHT22;4060;49.186;9.226;2023-02-22T00:01:05;14.20;53.00
7254;DHT22;4060;49.186;9.226;2023-02-22T00:03:50;14.20;53.00
7254;DHT22;4060;49.186;9.226;2023-02-22T00:06:21;14.20;53.00
7254;DHT22;4060;49.186;9.226;2023-02-22T00:08:51;14.10;53.00
7254;DHT22;4060;49.186;9.226;2023-02-22T00:11:22;14.10;53.00
7254;DHT22;4060;49.186;9.226;2023-02-22T00:13:51;14.10;53.00
7254;DHT22;4060;49.186;9.226;2023-02-22T00:16:24;14.00;53.00
7254;DHT22;4060;49.186;9.226;2023-02-22T00:18:56;14.00;53.00
7254;DHT22;4060;49.186;9.226;2023-02-22T00:21:26;14.00;53.10
7254;DHT22;4060;49.186;9.226;2023-02-22T00:23:57;13.90;53.00
7254;DHT22;4060;49.186;9.226;2023-02-22T00:26:26;13.90;53.00
7254;DHT22;4060;49.186;9.226;2023-02-22T00:28:56;13.90;53.10
7254;DHT22;4060;49.186;9.226;2023-02-22T00:31:25;13.90;53.10
7254;DHT22;4060;49.186;9.226;2023-02-22T00:33:57;13.80;53.00
7254;DHT22;4060;49.186;9.226;2023-02-22T00:36:26;13.80;53.10
7254;DHT22;4060;49.186;9.226;2023-02-22T00:38:56;13.80;53.20
7254;DHT22;4060;49.186;9.226;2023-02-22T00:41:25;13.70;53.10
7254;DHT22;4060;49.186;9.226;2023-02-22T00:43:55;13.70;53.10
7254;DHT22;4060;49.186;9.226;2023-02-22T00:46:24;13.70;53.10
7254;DHT22;4060;49.186;9.226;2023-02-22T00:48:56;13.70;53.20
7254;DHT22;4060;49.186;9.226;2023-02-22T00:51:26;13.60;53.10
7254;DHT22;4060;49.186;9.226;2023-02-22T00:53:56;13.60;53.10
7254;DHT22;4060;49.186;9.226;2023-02-22T00:56:25;13.60;53.20
7254;DHT22;4060;49.186;9.226;2023-02-22T00:58:55;13.50;53.10
7254;DHT22;4060;49.186;9.226;2023-02-22T01:01:24;13.60;53.30
7254;DHT22;4060;49.186;9.226;2023-02-22T01:03:56;13.50;53.20
7254;DHT22;4060;49.186;9.226;2023-02-22T01:06:26;13.50;53.20
7254;DHT22;4060;49.186;9.226;2023-02-22T01:08:55;13.50;53.30
7254;DHT22;4060;49.186;9.226;2023-02-22T01:11:25;13.40;53.20
7254;DHT22;4060;49.186;9.226;2023-02-22T01:13:54;13.40;53.30
7254;DHT22;4060;49.186;9.226;2023-02-22T01:16:26;13.40;53.40
7254;DHT22;4060;49.186;9.226;2023-02-22T01:18:58;13.40;53.40
7254;DHT22;4060;49.186;9.226;2023-02-22T01:21:28;13.30;53.40
7254;DHT22;4060;49.186;9.226;2023-02-22T01:23:58;13.30;53.40
7254;DHT22;4060;49.186;9.226;2023-02-22T01:26:27;13.30;53.50
7254;DHT22;4060;49.186;9.226;2023-02-22T01:28:57;13.30;53.50
7254;DHT22;4060;49.186;9.226;2023-02-22T01:31:26;13.20;53.40
7254;DHT22;4060;49.186;9.226;2023-02-22T01:33:57;13.20;53.50
7254;DHT22;4060;49.186;9.226;2023-02-22T01:36:27;13.20;53.40
7254;DHT22;4060;49.186;9.226;2023-02-22T01:38:57;13.10;53.40
7254;DHT22;4060;49.186;9.226;2023-02-22T01:41:27;13.10;53.50
7254;DHT22;4060;49.186;9.226;2023-02-22T01:43:56;13.10;53.50
7254;DHT22;4060;49.186;9.226;2023-02-22T01:46:27;13.10;53.50
7254;DHT22;4060;49.186;9.226;2023-02-22T01:49:01;13.10;53.60
7254;DHT22;4060;49.186;9.226;2023-02-22T01:51:35;13.00;53.50
7254;DHT22;4060;49.186;9.226;2023-02-22T01:54:08;13.00;53.90
7254;DHT22;4060;49.186;9.226;2023-02-22T01:56:53;13.00;53.60
7254;DHT22;4060;49.186;9.226;2023-02-22T01:59:28;13.00;53.70
7254;DHT22;4060;49.186;9.226;2023-02-22T02:02:00;12.90;53.60
7254;DHT22;4060;49.186;9.226;2023-02-22T02:04:33;12.90;53.70
7254;DHT22;4060;49.186;9.226;2023-02-22T02:07:06;12.90;53.70
7254;DHT22;4060;49.186;9.226;2023-02-22T02:09:38;12.80;53.70
7254;DHT22;4060;49.186;9.226;2023-02-22T02:12:11;12.80;53.70
7254;DHT22;4060;49.186;9.226;2023-02-22T02:14:42;12.80;53.70
7254;DHT22;4060;49.186;9.226;2023-02-22T02:17:13;12.80;53.80
7254;DHT22;4060;49.186;9.226;2023-02-22T02:19:53;12.70;53.70
7254;DHT22;4060;49.186;9.226;2023-02-22T02:22:35;12.70;53.70
7254;DHT22;4060;49.186;9.226;2023-02-22T02:25:28;12.70;53.80
7254;DHT22;4060;49.186;9.226;2023-02-22T02:28:30;12.70;53.80
7254;DHT22;4060;49.186;9.226;2023-02-22T02:34:25;12.60;53.90
7254;DHT22;4060;49.186;9.226;2023-02-22T02:37:01;12.60;53.90
7254;DHT22;4060;49.186;9.226;2023-02-22T02:39:40;12.50;53.80
7254;DHT22;4060;49.186;9.226;2023-02-22T02:42:15;12.50;53.90
7254;DHT22;4060;49.186;9.226;2023-02-22T02:44:53;12.50;54.00
7254;DHT22;4060;49.186;9.226;2023-02-22T02:47:27;12.50;54.00
7254;DHT22;4060;49.186;9.226;2023-02-22T02:50:03;12.40;54.00
7254;DHT22;4060;49.186;9.226;2023-02-22T02:52:34;12.40;54.00
7254;DHT22;4060;49.186;9.226;2023-02-22T02:55:05;12.40;54.10
7254;DHT22;4060;49.186;9.226;2023-02-22T02:57:35;12.40;54.10
7254;DHT22;4060;49.186;9.226;2023-02-22T03:00:06;12.40;54.20
7254;DHT22;4060;49.186;9.226;2023-02-22T03:03:01;12.40;54.20
7254;DHT22;4060;49.186;9.226;2023-02-22T03:06:11;12.30;54.10
7254;DHT22;4060;49.186;9.226;2023-02-22T03:08:44;12.30;54.20
7254;DHT22;4060;49.186;9.226;2023-02-22T03:11:18;12.30;54.30
7254;DHT22;4060;49.186;9.226;2023-02-22T03:13:52;12.30;54.40
7254;DHT22;4060;49.186;9.226;2023-02-22T03:16:31;12.20;54.30
7254;DHT22;4060;49.186;9.226;2023-02-22T03:19:06;12.20;54.40
7254;DHT22;4060;49.186;9.226;2023-02-22T03:21:44;12.20;54.40
7254;DHT22;4060;49.186;9.226;2023-02-22T03:24:18;12.20;54.50
7254;DHT22;4060;49.186;9.226;2023-02-22T03:26:56;12.20;54.50
7254;DHT22;4060;49.186;9.226;2023-02-22T03:29:30;12.20;54.50
7254;DHT22;4060;49.186;9.226;2023-02-22T03:32:04;12.10;54.50
7254;DHT22;4060;49.186;9.226;2023-02-22T03:34:39;12.10;54.50
7254;DHT22;4060;49.186;9.226;2023-02-22T03:37:16;12.10;54.50
7254;DHT22;4060;49.186;9.226;2023-02-22T03:39:50;12.10;55.00
7254;DHT22;4060;49.186;9.226;2023-02-22T03:42:25;12.10;54.60
7254;DHT22;4060;49.186;9.226;2023-02-22T03:44:59;12.00;54.60
7254;DHT22;4060;49.186;9.226;2023-02-22T03:47:36;12.00;54.60
7254;DHT22;4060;49.186;9.226;2023-02-22T03:50:10;12.00;54.60
7254;DHT22;4060;49.186;9.226;2023-02-22T03:52:44;12.00;54.60
7254;DHT22;4060;49.186;9.226;2023-02-22T03:55:15;11.90;54.60
7254;DHT22;4060;49.186;9.226;2023-02-22T03:57:48;12.00;54.70
7254;DHT22;4060;49.186;9.226;2023-02-22T04:00:22;11.90;54.60
7254;DHT22;4060;49.186;9.226;2023-02-22T04:02:51;11.90;54.60
7254;DHT22;4060;49.186;9.226;2023-02-22T04:05:21;11.90;54.60
7254;DHT22;4060;49.186;9.226;2023-02-22T04:07:55;11.90;54.60
7254;DHT22;4060;49.186;9.226;2023-02-22T04:10:25;11.90;54.60
7254;DHT22;4060;49.186;9.226;2023-02-22T04:12:54;11.80;54.60
7254;DHT22;4060;49.186;9.226;2023-02-22T04:15:25;11.80;54.60
7254;DHT22;4060;49.186;9.226;2023-02-22T04:18:01;11.80;54.60
7254;DHT22;4060;49.186;9.226;2023-02-22T04:20:30;11.80;54.70
7254;DHT22;4060;49.186;9.226;2023-02-22T04:23:03;11.80;54.70
7254;DHT22;4060;49.186;9.226;2023-02-22T04:25:33;11.80;54.80
7254;DHT22;4060;49.186;9.226;2023-02-22T04:28:03;11.80;54.80
7254;DHT22;4060;49.186;9.226;2023-02-22T04:30:33;11.70;54.70
7254;DHT22;4060;49.186;9.226;2023-02-22T04:33:03;11.70;54.80
7254;DHT22;4060;49.186;9.226;2023-02-22T04:35:32;11.70;54.80
7254;DHT22;4060;49.186;9.226;2023-02-22T04:38:04;11.70;54.80
7254;DHT22;4060;49.186;9.226;2023-02-22T04:40:35;11.70;54.80
7254;DHT22;4060;49.186;9.226;2023-02-22T04:43:04;11.60;54.70
7254;DHT22;4060;49.186;9.226;2023-02-22T04:45:36;11.60;54.80
7254;DHT22;4060;49.186;9.226;2023-02-22T04:48:05;11.60;54.80
7254;DHT22;4060;49.186;9.226;2023-02-22T04:50:35;11.60;54.80
7254;DHT22;4060;49.186;9.226;2023-02-22T04:53:07;11.60;54.80
7254;DHT22;4060;49.186;9.226;2023-02-22T04:55:37;11.50;54.70
7254;DHT22;4060;49.186;9.226;2023-02-22T04:58:06;11.50;54.70
7254;DHT22;4060;49.186;9.226;2023-02-22T05:00:35;11.50;54.70
7254;DHT22;4060;49.186;9.226;2023-02-22T05:03:04;11.50;54.70
7254;DHT22;4060;49.186;9.226;2023-02-22T05:05:33;11.50;54.80
7254;DHT22;4060;49.186;9.226;2023-02-22T05:08:03;11.50;54.80
7254;DHT22;4060;49.186;9.226;2023-02-22T05:10:34;11.40;54.70
7254;DHT22;4060;49.186;9.226;2023-02-22T05:13:04;11.40;54.80
7254;DHT22;4060;49.186;9.226;2023-02-22T05:15:35;11.40;54.80
7254;DHT22;4060;49.186;9.226;2023-02-22T05:18:04;11.40;54.80
7254;DHT22;4060;49.186;9.226;2023-02-22T05:20:34;11.40;54.80
7254;DHT22;4060;49.186;9.226;2023-02-22T05:23:04;11.40;54.80
7254;DHT22;4060;49.186;9.226;2023-02-22T05:25:37;11.30;54.70
7254;DHT22;4060;49.186;9.226;2023-02-22T05:28:09;11.30;54.80
7254;DHT22;4060;49.186;9.226;2023-02-22T05:30:39;11.30;54.80
7254;DHT22;4060;49.186;9.226;2023-02-22T05:33:09;11.30;54.80
7254;DHT22;4060;49.186;9.226;2023-02-22T05:35:39;11.30;54.90
7254;DHT22;4060;49.186;9.226;2023-02-22T05:38:10;11.30;54.90
7254;DHT22;4060;49.186;9.226;2023-02-22T05:40:43;11.30;54.90
7254;DHT22;4060;49.186;9.226;2023-02-22T05:43:12;11.20;54.80
7254;DHT22;4060;49.186;9.226;2023-02-22T05:45:41;11.20;54.90
7254;DHT22;4060;49.186;9.226;2023-02-22T05:48:11;11.20;54.90
7254;DHT22;4060;49.186;9.226;2023-02-22T05:50:40;11.20;54.80
7254;DHT22;4060;49.186;9.226;2023-02-22T05:53:10;11.20;54.90
7254;DHT22;4060;49.186;9.226;2023-02-22T05:55:42;11.20;54.90
7254;DHT22;4060;49.186;9.226;2023-02-22T05:58:11;11.10;54.80
7254;DHT22;4060;49.186;9.226;2023-02-22T06:00:41;11.10;54.80
7254;DHT22;4060;49.186;9.226;2023-02-22T06:03:11;11.10;54.80
7254;DHT22;4060;49.186;9.226;2023-02-22T06:05:40;11.10;54.80
7254;DHT22;4060;49.186;9.226;2023-02-22T06:08:11;11.10;54.90
7254;DHT22;4060;49.186;9.226;2023-02-22T06:10:43;11.10;54.90
7254;DHT22;4060;49.186;9.226;2023-02-22T06:13:12;11.00;54.90
7254;DHT22;4060;49.186;9.226;2023-02-22T06:15:43;11.00;54.90
7254;DHT22;4060;49.186;9.226;2023-02-22T06:18:12;11.00;54.90
7254;DHT22;4060;49.186;9.226;2023-02-22T06:20:41;11.00;54.90
7254;DHT22;4060;49.186;9.226;2023-02-22T06:23:11;11.00;54.90
7254;DHT22;4060;49.186;9.226;2023-02-22T06:25:42;11.00;55.00
7254;DHT22;4060;49.186;9.226;2023-02-22T06:28:12;11.00;55.00
7254;DHT22;4060;49.186;9.226;2023-02-22T06:30:42;10.90;54.90
7254;DHT22;4060;49.186;9.226;2023-02-22T06:33:11;10.90;55.00
7254;DHT22;4060;49.186;9.226;2023-02-22T06:35:41;10.90;55.00
7254;DHT22;4060;49.186;9.226;2023-02-22T06:38:12;10.90;55.00
7254;DHT22;4060;49.186;9.226;2023-02-22T06:40:51;10.90;55.00
7254;DHT22;4060;49.186;9.226;2023-02-22T06:43:21;10.90;55.10
7254;DHT22;4060;49.186;9.226;2023-02-22T06:45:51;10.80;55.20
7254;DHT22;4060;49.186;9.226;2023-02-22T06:48:20;10.80;55.10
7254;DHT22;4060;49.186;9.226;2023-02-22T06:50:50;10.80;55.10
7254;DHT22;4060;49.186;9.226;2023-02-22T06:53:19;10.80;55.10
7254;DHT22;4060;49.186;9.226;2023-02-22T06:55:53;10.80;55.70
7254;DHT22;4060;49.186;9.226;2023-02-22T06:58:23;10.80;55.20
7254;DHT22;4060;49.186;9.226;2023-02-22T07:00:54;10.80;55.20
7254;DHT22;4060;49.186;9.226;2023-02-22T07:03:23;10.80;55.30
7254;DHT22;4060;49.186;9.226;2023-02-22T07:05:52;10.70;55.20
7254;DHT22;4060;49.186;9.226;2023-02-22T07:08:22;10.70;55.30
7254;DHT22;4060;49.186;9.226;2023-02-22T07:10:53;10.70;55.20
7254;DHT22;4060;49.186;9.226;2023-02-22T07:13:23;10.70;55.30
7254;DHT22;4060;49.186;9.226;2023-02-22T07:15:54;10.70;55.30
7254;DHT22;4060;49.186;9.226;2023-02-22T07:18:23;10.70;55.40
7254;DHT22;4060;49.186;9.226;2023-02-22T07:20:53;10.70;55.40
7254;DHT22;4060;49.186;9.226;2023-02-22T07:23:24;10.70;55.50
7254;DHT22;4060;49.186;9.226;2023-02-22T07:25:59;10.70;55.50
7254;DHT22;4060;49.186;9.226;2023-02-22T07:28:29;10.60;55.50
7254;DHT22;4060;49.186;9.226;2023-02-22T07:30:58;10.70;55.60
7254;DHT22;4060;49.186;9.226;2023-02-22T07:33:27;10.60;55.50
7254;DHT22;4060;49.186;9.226;2023-02-22T07:35:57;10.60;55.60
7254;DHT22;4060;49.186;9.226;2023-02-22T07:38:27;10.60;55.60
7254;DHT22;4060;49.186;9.226;2023-02-22T07:40:58;10.60;55.60
7254;DHT22;4060;49.186;9.226;2023-02-22T07:43:28;10.60;55.70
7254;DHT22;4060;49.186;9.226;2023-02-22T07:45:58;10.60;55.80
7254;DHT22;4060;49.186;9.226;2023-02-22T07:48:30;10.60;55.90
7254;DHT22;4060;49.186;9.226;2023-02-22T07:51:00;10.60;56.00
7254;DHT22;4060;49.186;9.226;2023-02-22T07:53:32;10.70;56.20
7254;DHT22;4060;49.186;9.226;2023-02-22T07:56:04;10.60;56.20
7254;DHT22;4060;49.186;9.226;2023-02-22T07:58:34;10.70;56.40
7254;DHT22;4060;49.186;9.226;2023-02-22T08:01:04;10.70;56.50
7254;DHT22;4060;49.186;9.226;2023-02-22T08:03:34;10.70;56.60
7254;DHT22;4060;49.186;9.226;2023-02-22T08:06:05;10.70;56.70
7254;DHT22;4060;49.186;9.226;2023-02-22T08:08:35;10.70;56.80
7254;DHT22;4060;49.186;9.226;2023-02-22T08:11:06;10.70;56.90
7254;DHT22;4060;49.186;9.226;2023-02-22T08:13:36;10.80;57.10
7254;DHT22;4060;49.186;9.226;2023-02-22T08:16:06;10.80;57.10
7254;DHT22;4060;49.186;9.226;2023-02-22T08:18:36;10.70;57.20
7254;DHT22;4060;49.186;9.226;2023-02-22T08:21:07;10.70;57.40
7254;DHT22;4060;49.186;9.226;2023-02-22T08:23:36;10.80;57.60
7254;DHT22;4060;49.186;9.226;2023-02-22T08:26:10;10.80;57.70
7254;DHT22;4060;49.186;9.226;2023-02-22T08:28:44;10.80;57.80
7254;DHT22;4060;49.186;9.226;2023-02-22T08:31:13;10.80;57.90
7254;DHT22;4060;49.186;9.226;2023-02-22T08:33:45;10.80;58.00
7254;DHT22;4060;49.186;9.226;2023-02-22T08:36:15;10.90;58.20
7254;DHT22;4060;49.186;9.226;2023-02-22T08:38:45;10.90;58.30
7254;DHT22;4060;49.186;9.226;2023-02-22T08:41:16;10.90;58.40
7254;DHT22;4060;49.186;9.226;2023-02-22T08:43:46;10.90;58.40
7254;DHT22;4060;49.186;9.226;2023-02-22T08:46:16;11.00;58.60
7254;DHT22;4060;49.186;9.226;2023-02-22T08:48:51;11.00;58.70
7254;DHT22;4060;49.186;9.226;2023-02-22T08:51:20;11.00;58.80
7254;DHT22;4060;49.186;9.226;2023-02-22T08:53:50;11.00;58.80
7254;DHT22;4060;49.186;9.226;2023-02-22T08:56:23;11.10;59.00
7254;DHT22;4060;49.186;9.226;2023-02-22T08:58:52;11.10;59.00
7254;DHT22;4060;49.186;9.226;2023-02-22T09:01:23;11.10;59.00
7254;DHT22;4060;49.186;9.226;2023-02-22T09:03:55;11.10;59.10
7254;DHT22;4060;49.186;9.226;2023-02-22T09:06:24;11.20;59.20
7254;DHT22;4060;49.186;9.226;2023-02-22T09:08:55;11.20;59.30
7254;DHT22;4060;49.186;9.226;2023-02-22T09:11:29;11.20;59.30
7254;DHT22;4060;49.186;9.226;2023-02-22T09:13:59;11.30;59.50
7254;DHT22;4060;49.186;9.226;2023-02-22T09:16:28;11.30;59.40
7254;DHT22;4060;49.186;9.226;2023-02-22T09:18:59;11.30;59.50
7254;DHT22;4060;49.186;9.226;2023-02-22T09:21:34;11.30;59.50
7254;DHT22;4060;49.186;9.226;2023-02-22T09:24:04;11.40;59.60
7254;DHT22;4060;49.186;9.226;2023-02-22T09:26:37;11.40;59.70
7254;DHT22;4060;49.186;9.226;2023-02-22T09:29:07;11.40;60.30
7254;DHT22;4060;49.186;9.226;2023-02-22T09:31:38;11.40;59.70
7254;DHT22;4060;49.186;9.226;2023-02-22T09:34:08;11.40;59.90
7254;DHT22;4060;49.186;9.226;2023-02-22T09:36:40;11.50;59.80
7254;DHT22;4060;49.186;9.226;2023-02-22T09:39:10;11.50;59.90
7254;DHT22;4060;49.186;9.226;2023-02-22T09:42:00;11.50;59.90
7254;DHT22;4060;49.186;9.226;2023-02-22T09:44:37;11.60;60.10
7254;DHT22;4060;49.186;9.226;2023-02-22T09:47:15;11.60;60.00
7254;DHT22;4060;49.186;9.226;2023-02-22T09:49:55;11.60;60.00
7254;DHT22;4060;49.186;9.226;2023-02-22T09:52:29;11.60;60.10
7254;DHT22;4060;49.186;9.226;2023-02-22T09:55:06;11.60;60.10
7254;DHT22;4060;49.186;9.226;2023-02-22T09:57:44;11.70;60.20
7254;DHT22;4060;49.186;9.226;2023-02-22T10:00:18;11.70;61.10
7254;DHT22;4060;49.186;9.226;2023-02-22T10:02:51;11.70;60.20
7254;DHT22;4060;49.186;9.226;2023-02-22T10:05:33;11.70;60.30
7254;DHT22;4060;49.186;9.226;2023-02-22T10:08:05;11.80;60.50
7254;DHT22;4060;49.186;9.226;2023-02-22T10:10:40;11.80;60.30
7254;DHT22;4060;49.186;9.226;2023-02-22T10:13:24;11.80;60.30
7254;DHT22;4060;49.186;9.226;2023-02-22T10:16:00;11.80;60.30
7254;DHT22;4060;49.186;9.226;2023-02-22T10:19:02;11.90;60.30
7254;DHT22;4060;49.186;9.226;2023-02-22T10:24:41;11.90;60.20
7254;DHT22;4060;49.186;9.226;2023-02-22T10:27:17;11.90;60.10
7254;DHT22;4060;49.186;9.226;2023-02-22T10:29:55;11.90;60.10
7254;DHT22;4060;49.186;9.226;2023-02-22T10:32:33;11.90;60.00
7254;DHT22;4060;49.186;9.226;2023-02-22T10:35:19;11.90;60.00
7254;DHT22;4060;49.186;9.226;2023-02-22T10:37:53;11.90;60.00
7254;DHT22;4060;49.186;9.226;2023-02-22T10:40:25;12.00;60.00
7254;DHT22;4060;49.186;9.226;2023-02-22T10:43:05;12.00;60.00
7254;DHT22;4060;49.186;9.226;2023-02-22T10:45:39;12.00;60.70
7254;DHT22;4060;49.186;9.226;2023-02-22T10:48:10;12.00;59.90
7254;DHT22;4060;49.186;9.226;2023-02-22T10:50:42;12.00;59.90
7254;DHT22;4060;49.186;9.226;2023-02-22T10:53:12;12.00;59.90
7254;DHT22;4060;49.186;9.226;2023-02-22T10:56:15;12.00;59.90
7254;DHT22;4060;49.186;9.226;2023-02-22T10:58:50;12.10;60.00
7254;DHT22;4060;49.186;9.226;2023-02-22T11:01:32;12.10;59.90
7254;DHT22;4060;49.186;9.226;2023-02-22T11:04:10;12.10;60.00
7254;DHT22;4060;49.186;9.226;2023-02-22T11:06:41;12.20;60.00
7254;DHT22;4060;49.186;9.226;2023-02-22T11:09:13;12.20;59.90
7254;DHT22;4060;49.186;9.226;2023-02-22T11:11:45;12.20;59.90
7254;DHT22;4060;49.186;9.226;2023-02-22T11:14:27;12.20;59.90
7254;DHT22;4060;49.186;9.226;2023-02-22T11:17:00;12.30;59.90
7254;DHT22;4060;49.186;9.226;2023-02-22T11:19:36;12.30;59.90
7254;DHT22;4060;49.186;9.226;2023-02-22T11:22:11;12.30;59.80
7254;DHT22;4060;49.186;9.226;2023-02-22T11:24:47;12.30;59.80
7254;DHT22;4060;49.186;9.226;2023-02-22T11:27:27;12.30;59.70
7254;DHT22;4060;49.186;9.226;2023-02-22T11:30:16;12.40;59.80
7254;DHT22;4060;49.186;9.226;2023-02-22T11:32:53;12.40;59.80
7254;DHT22;4060;49.186;9.226;2023-02-22T11:35:34;12.40;59.70
7254;DHT22;4060;49.186;9.226;2023-02-22T11:38:13;12.50;59.70
7254;DHT22;4060;49.186;9.226;2023-02-22T11:40:43;12.50;59.60
7254;DHT22;4060;49.186;9.226;2023-02-22T11:43:17;12.50;59.60
7254;DHT22;4060;49.186;9.226;2023-02-22T11:45:58;12.50;59.50
7254;DHT22;4060;49.186;9.226;2023-02-22T11:48:32;12.50;59.50
7254;DHT22;4060;49.186;9.226;2023-02-22T11:51:33;12.60;59.50
7254;DHT22;4060;49.186;9.226;2023-02-22T11:54:25;12.60;59.50
7254;DHT22;4060;49.186;9.226;2023-02-22T11:57:05;12.60;59.40
7254;DHT22;4060;49.186;9.226;2023-02-22T11:59:45;12.60;59.30
7254;DHT22;4060;49.186;9.226;2023-02-22T12:02:48;12.70;59.40
7254;DHT22;4060;49.186;9.226;2023-02-22T12:05:36;12.70;59.30
7254;DHT22;4060;49.186;9.226;2023-02-22T12:08:18;12.70;59.30
7254;DHT22;4060;49.186;9.226;2023-02-22T12:10:58;12.70;59.30
7254;DHT22;4060;49.186;9.226;2023-02-22T12:13:39;12.80;59.30
7254;DHT22;4060;49.186;9.226;2023-02-22T12:16:21;12.80;59.30
7254;DHT22;4060;49.186;9.226;2023-02-22T12:19:06;12.80;59.20
7254;DHT22;4060;49.186;9.226;2023-02-22T12:21:42;12.90;59.30
7254;DHT22;4060;49.186;9.226;2023-02-22T12:24:15;12.90;59.20
7254;DHT22;4060;49.186;9.226;2023-02-22T12:26:49;12.90;59.10
7254;DHT22;4060;49.186;9.226;2023-02-22T12:29:25;12.90;59.10
7254;DHT22;4060;49.186;9.226;2023-02-22T12:32:02;13.00;59.20
7254;DHT22;4060;49.186;9.226;2023-02-22T12:34:39;13.00;59.20
7254;DHT22;4060;49.186;9.226;2023-02-22T12:37:18;13.00;59.10
7254;DHT22;4060;49.186;9.226;2023-02-22T12:39:58;13.10;59.20
7254;DHT22;4060;49.186;9.226;2023-02-22T12:42:32;13.10;59.10
7254;DHT22;4060;49.186;9.226;2023-02-22T12:45:05;13.10;59.10
7254;DHT22;4060;49.186;9.226;2023-02-22T12:47:43;13.20;59.20
7254;DHT22;4060;49.186;9.226;2023-02-22T12:50:20;13.20;59.20
7254;DHT22;4060;49.186;9.226;2023-02-22T12:52:58;13.20;59.00
7254;DHT22;4060;49.186;9.226;2023-02-22T12:55:37;13.30;59.10
7254;DHT22;4060;49.186;9.226;2023-02-22T12:58:21;13.30;59.10
7254;DHT22;4060;49.186;9.226;2023-02-22T13:00:58;13.30;59.60
7254;DHT22;4060;49.186;9.226;2023-02-22T13:03:35;13.40;59.10
7254;DHT22;4060;49.186;9.226;2023-02-22T13:06:29;13.40;59.10
7254;DHT22;4060;49.186;9.226;2023-02-22T13:09:24;13.40;59.00
7254;DHT22;4060;49.186;9.226;2023-02-22T13:12:02;13.50;59.00
7254;DHT22;4060;49.186;9.226;2023-02-22T13:14:40;13.50;59.00
7254;DHT22;4060;49.186;9.226;2023-02-22T13:17:19;13.50;58.90
7254;DHT22;4060;49.186;9.226;2023-02-22T13:19:57;13.50;58.90
7254;DHT22;4060;49.186;9.226;2023-02-22T13:22:34;13.60;58.90
7254;DHT22;4060;49.186;9.226;2023-02-22T13:25:13;13.60;58.90
7254;DHT22;4060;49.186;9.226;2023-02-22T13:27:49;13.70;58.90
7254;DHT22;4060;49.186;9.226;2023-02-22T13:30:23;13.70;58.90
7254;DHT22;4060;49.186;9.226;2023-02-22T13:33:17;13.70;58.90
7254;DHT22;4060;49.186;9.226;2023-02-22T13:36:16;13.70;58.80
7254;DHT22;4060;49.186;9.226;2023-02-22T13:42:10;13.80;58.80
7254;DHT22;4060;49.186;9.226;2023-02-22T13:48:06;13.80;58.60
7254;DHT22;4060;49.186;9.226;2023-02-22T13:51:03;13.90;58.70
7254;DHT22;4060;49.186;9.226;2023-02-22T13:53:41;13.90;58.70
7254;DHT22;4060;49.186;9.226;2023-02-22T13:56:16;13.90;58.60
7254;DHT22;4060;49.186;9.226;2023-02-22T13:58:51;13.90;58.60
7254;DHT22;4060;49.186;9.226;2023-02-22T14:01:41;13.90;58.50
7254;DHT22;4060;49.186;9.226;2023-02-22T14:04:36;14.00;58.50
7254;DHT22;4060;49.186;9.226;2023-02-22T14:07:44;14.00;58.50
7254;DHT22;4060;49.186;9.226;2023-02-22T14:13:27;14.10;58.60
7254;DHT22;4060;49.186;9.226;2023-02-22T14:16:25;14.10;58.60
7254;DHT22;4060;49.186;9.226;2023-02-22T14:19:11;14.10;58.50
7254;DHT22;4060;49.186;9.226;2023-02-22T14:21:57;14.10;58.50
7254;DHT22;4060;49.186;9.226;2023-02-22T14:24:28;14.20;58.60
7254;DHT22;4060;49.186;9.226;2023-02-22T14:27:02;14.20;58.50
7254;DHT22;4060;49.186;9.226;2023-02-22T14:29:32;14.20;58.50
7254;DHT22;4060;49.186;9.226;2023-02-22T14:32:06;14.20;58.40
7254;DHT22;4060;49.186;9.226;2023-02-22T14:34:42;14.30;58.40
7254;DHT22;4060;49.186;9.226;2023-02-22T14:37:16;14.30;58.40
7254;DHT22;4060;49.186;9.226;2023-02-22T14:39:48;14.30;58.30
7254;DHT22;4060;49.186;9.226;2023-02-22T14:42:23;14.40;58.40
7254;DHT22;4060;49.186;9.226;2023-02-22T14:45:00;14.40;58.40
7254;DHT22;4060;49.186;9.226;2023-02-22T14:47:41;14.40;58.30
7254;DHT22;4060;49.186;9.226;2023-02-22T14:50:19;14.40;58.30
7254;DHT22;4060;49.186;9.226;2023-02-22T14:53:02;14.50;58.30
7254;DHT22;4060;49.186;9.226;2023-02-22T14:55:38;14.40;58.20
7254;DHT22;4060;49.186;9.226;2023-02-22T14:58:12;14.50;58.20
7254;DHT22;4060;49.186;9.226;2023-02-22T15:00:46;14.50;58.20
7254;DHT22;4060;49.186;9.226;2023-02-22T15:03:27;14.50;58.60
7254;DHT22;4060;49.186;9.226;2023-02-22T15:06:14;14.50;58.10
7254;DHT22;4060;49.186;9.226;2023-02-22T15:08:45;14.60;58.10
7254;DHT22;4060;49.186;9.226;2023-02-22T15:11:22;14.60;58.10
7254;DHT22;4060;49.186;9.226;2023-02-22T15:13:53;14.60;58.10
7254;DHT22;4060;49.186;9.226;2023-02-22T15:16:25;14.60;58.00
7254;DHT22;4060;49.186;9.226;2023-02-22T15:18:59;14.60;57.90
7254;DHT22;4060;49.186;9.226;2023-02-22T15:21:29;14.60;58.00
7254;DHT22;4060;49.186;9.226;2023-02-22T15:24:02;14.80;58.20
7254;DHT22;4060;49.186;9.226;2023-02-22T15:26:35;15.00;58.00
7254;DHT22;4060;49.186;9.226;2023-02-22T15:29:12;15.30;57.90
7254;DHT22;4060;49.186;9.226;2023-02-22T15:31:43;15.60;57.70
7254;DHT22;4060;49.186;9.226;2023-02-22T15:34:23;15.90;57.40
7254;DHT22;4060;49.186;9.226;2023-02-22T15:36:54;16.20;57.00
7254;DHT22;4060;49.186;9.226;2023-02-22T15:39:25;16.50;56.60
7254;DHT22;4060;49.186;9.226;2023-02-22T15:42:06;16.70;56.20
7254;DHT22;4060;49.186;9.226;2023-02-22T15:44:38;16.90;55.70
7254;DHT22;4060;49.186;9.226;2023-02-22T15:47:11;17.10;55.50
7254;DHT22;4060;49.186;9.226;2023-02-22T15:52:32;17.40;54.90
7254;DHT22;4060;49.186;9.226;2023-02-22T15:55:03;17.50;54.70
7254;DHT22;4060;49.186;9.226;2023-02-22T15:57:34;17.60;54.50
7254;DHT22;4060;49.186;9.226;2023-02-22T16:00:04;17.70;54.30
7254;DHT22;4060;49.186;9.226;2023-02-22T16:02:38;17.80;54.10
7254;DHT22;4060;49.186;9.226;2023-02-22T16:05:12;17.80;53.90
7254;DHT22;4060;49.186;9.226;2023-02-22T16:07:47;17.90;53.80
7254;DHT22;4060;49.186;9.226;2023-02-22T16:10:29;17.90;53.60
7254;DHT22;4060;49.186;9.226;2023-02-22T16:13:08;17.90;53.50
7254;DHT22;4060;49.186;9.226;2023-02-22T16:15:38;17.90;53.30
7254;DHT22;4060;49.186;9.226;2023-02-22T16:18:29;18.00;53.40
7254;DHT22;4060;49.186;9.226;2023-02-22T16:21:04;17.90;53.10
7254;DHT22;4060;49.186;9.226;2023-02-22T16:23:45;18.00;53.30
7254;DHT22;4060;49.186;9.226;2023-02-22T16:26:24;18.00;53.20
7254;DHT22;4060;49.186;9.226;2023-02-22T16:28:54;18.00;53.10
7254;DHT22;4060;49.186;9.226;2023-02-22T16:31:25;18.00;53.10
7254;DHT22;4060;49.186;9.226;2023-02-22T16:33:55;18.00;53.10
7254;DHT22;4060;49.186;9.226;2023-02-22T16:36:38;18.00;53.00
7254;DHT22;4060;49.186;9.226;2023-02-22T16:39:12;18.00;52.90
7254;DHT22;4060;49.186;9.226;2023-02-22T16:41:47;18.00;53.00
7254;DHT22;4060;49.186;9.226;2023-02-22T16:44:17;17.90;52.90
7254;DHT22;4060;49.186;9.226;2023-02-22T16:46:47;17.90;52.90
7254;DHT22;4060;49.186;9.226;2023-02-22T16:49:16;17.90;52.90
7254;DHT22;4060;49.186;9.226;2023-02-22T16:51:50;17.90;52.90
7254;DHT22;4060;49.186;9.226;2023-02-22T16:54:26;17.90;52.90
7254;DHT22;4060;49.186;9.226;2023-02-22T16:56:58;17.80;52.80
7254;DHT22;4060;49.186;9.226;2023-02-22T16:59:31;17.80;52.90
7254;DHT22;4060;49.186;9.226;2023-02-22T17:02:01;17.80;52.90
7254;DHT22;4060;49.186;9.226;2023-02-22T17:04:34;17.80;52.90
7254;DHT22;4060;49.186;9.226;2023-02-22T17:07:05;17.80;52.90